Terminal Aerodrome Forecast
Issued by NWS

Home | Current Version | Previous Version | Text Only | Print | Product List | Glossary Off
Versions: 1 2 3 4 5 6 7 8 9 10 11 12 13 14

000
FTUS42 KMHX 252335
TAFPGV
TAF
KPGV 252335Z 2600/2624 VRB04KT P6SM SCT020 BKN040
     FM260300 VRB03KT P6SM BKN020
     FM260500 VRB03KT P6SM BKN007
     FM261200 VRB04KT P6SM BKN010
     FM261500 27005KT P6SM SCT020
      AMD LTD TO CLD VIS AND WIND=

USA.gov is the U.S. government's official web portal to all federal, state and local government web resources and services.